Time;durP1;ratioP1;P1;durP2;ratioP2;P2;SDS_P1;SDS_P2;PMS_P1;PMS_P2;Temp;Humidity;BMP_temperature;BMP_pressure;BME280_temperature;BME280_humidity;BME280_pressure;Samples;Min_cycle;Max_cycle;Signal;HPM_P1;HPM_P2
2023/04/13 00:01:50;;;;;;;11.40;6.17;;;;;;;4.59;100.00;99495.81;7394854;19;20444;-36
2023/04/13 00:04:22;;;;;;;13.20;5.27;;;;;;;4.43;100.00;99489.13;7394463;19;20400;-35
2023/04/13 00:06:51;;;;;;;13.03;5.63;;;;;;;4.42;100.00;99485.69;7394556;19;20449;-36
2023/04/13 00:09:24;;;;;;;13.27;5.10;;;;;;;4.39;100.00;99484.66;7393960;19;20412;-35
2023/04/13 00:11:54;;;;;;;29.37;11.23;;;;;;;4.37;100.00;99482.06;7393309;19;20436;-37
2023/04/13 00:14:27;;;;;;;13.53;5.03;;;;;;;4.29;100.00;99480.81;7394350;19;20427;-36
2023/04/13 00:16:56;;;;;;;12.97;5.97;;;;;;;4.32;100.00;99481.81;7394413;19;20446;-35
2023/04/13 00:19:27;;;;;;;30.53;12.97;;;;;;;4.36;100.00;99485.41;7391886;19;20433;-36
2023/04/13 00:21:58;;;;;;;26.53;10.13;;;;;;;4.35;100.00;99481.09;7393820;19;20566;-35
2023/04/13 00:24:30;;;;;;;17.40;8.30;;;;;;;4.36;100.00;99485.41;7392576;19;20420;-36
2023/04/13 00:27:00;;;;;;;23.43;10.13;;;;;;;4.41;100.00;99483.94;7392943;19;20404;-36
2023/04/13 00:29:29;;;;;;;12.07;5.90;;;;;;;4.33;100.00;99480.16;7392621;19;20938;-36
2023/04/13 00:32:00;;;;;;;20.23;10.20;;;;;;;4.29;100.00;99481.69;7392807;19;20459;-36
2023/04/13 00:34:29;;;;;;;18.57;8.03;;;;;;;4.32;100.00;99483.53;7392316;19;20779;-37
2023/04/13 00:37:00;;;;;;;48.30;21.03;;;;;;;4.49;100.00;99473.19;7392675;19;20411;-36
2023/04/13 00:39:33;;;;;;;14.37;6.53;;;;;;;4.43;100.00;99477.25;7392106;19;20410;-35
2023/04/13 00:42:04;;;;;;;17.13;7.53;;;;;;;4.29;100.00;99479.16;7391807;19;20435;-36
2023/04/13 00:44:33;;;;;;;23.73;11.10;;;;;;;4.34;100.00;99469.13;7391920;19;20408;-37
2023/04/13 00:47:04;;;;;;;15.93;6.80;;;;;;;4.30;100.00;99470.69;7393088;19;20771;-36
2023/04/13 00:49:34;;;;;;;14.23;6.63;;;;;;;4.26;100.00;99473.03;7389334;19;20960;-36
2023/04/13 00:52:07;;;;;;;14.53;7.83;;;;;;;4.34;100.00;99471.69;7392148;19;20461;-36
2023/04/13 00:54:39;;;;;;;19.80;10.60;;;;;;;4.39;100.00;99465.13;7386458;19;20407;-39
2023/04/13 00:57:09;;;;;;;15.37;7.37;;;;;;;4.44;100.00;99468.75;7393068;19;20416;-35
2023/04/13 00:59:39;;;;;;;45.90;18.37;;;;;;;4.52;100.00;99473.34;7390250;19;20411;-37
2023/04/13 01:02:09;;;;;;;17.30;8.60;;;;;;;4.35;100.00;99476.00;7391932;19;20455;-35
2023/04/13 01:04:40;;;;;;;18.07;7.03;;;;;;;4.24;100.00;99474.59;7389783;19;20430;-35
2023/04/13 01:07:14;;;;;;;16.73;8.10;;;;;;;4.09;100.00;99474.78;7393466;19;20478;-36
2023/04/13 01:09:51;;;;;;;48.40;22.63;;;;;;;4.14;100.00;99479.31;7389141;19;20791;-35
2023/04/13 01:12:29;;;;;;;31.90;14.57;;;;;;;4.22;100.00;99481.34;7392158;19;21028;-35
2023/04/13 01:15:01;;;;;;;21.10;8.90;;;;;;;4.18;100.00;99470.09;7389518;19;20415;-36
2023/04/13 01:17:32;;;;;;;21.53;9.83;;;;;;;4.18;100.00;99476.09;7395152;19;20414;-35
2023/04/13 01:20:07;;;;;;;18.30;9.27;;;;;;;4.24;100.00;99475.50;7393877;19;20418;-36
2023/04/13 01:22:37;;;;;;;43.60;19.37;;;;;;;4.39;100.00;99470.22;7399426;19;20458;-35
2023/04/13 01:25:29;;;;;;;44.07;21.20;;;;;;;4.59;100.00;99472.81;7395920;19;20411;-36
2023/04/13 01:28:02;;;;;;;26.50;12.43;;;;;;;4.39;100.00;99465.13;7398726;19;20430;-35
2023/04/13 01:30:32;;;;;;;34.97;18.10;;;;;;;4.37;100.00;99466.75;7398042;19;20435;-36
2023/04/13 01:33:03;;;;;;;22.77;9.67;;;;;;;4.38;100.00;99468.47;7399004;19;20443;-35
2023/04/13 01:35:33;;;;;;;22.70;10.90;;;;;;;4.15;100.00;99465.72;7396635;19;20446;-35
2023/04/13 01:38:03;;;;;;;76.30;32.67;;;;;;;4.15;100.00;99464.88;7398682;19;20424;-35
2023/04/13 01:40:33;;;;;;;21.63;10.50;;;;;;;4.05;100.00;99468.63;7395707;19;20460;-36
2023/04/13 01:43:06;;;;;;;22.90;10.37;;;;;;;4.28;100.00;99468.84;7397597;19;20439;-34
2023/04/13 01:45:38;;;;;;;23.30;11.93;;;;;;;4.37;100.00;99464.19;7393517;19;20446;-36
2023/04/13 01:48:12;;;;;;;23.37;11.67;;;;;;;4.31;100.00;99461.34;7398923;19;20422;-36
2023/04/13 01:50:43;;;;;;;23.23;10.47;;;;;;;4.10;100.00;99462.06;7393882;19;20423;-36
2023/04/13 01:53:17;;;;;;;30.47;12.10;;;;;;;4.18;100.00;99462.44;7398839;19;20470;-35
2023/04/13 01:55:47;;;;;;;25.50;11.30;;;;;;;4.07;100.00;99456.84;7394806;19;20474;-36
2023/04/13 01:58:20;;;;;;;20.87;10.43;;;;;;;3.94;100.00;99457.91;7398510;19;20399;-35
2023/04/13 02:00:49;;;;;;;27.10;12.73;;;;;;;3.83;100.00;99462.53;7393448;19;20990;-36
2023/04/13 02:03:21;;;;;;;20.50;9.73;;;;;;;3.71;100.00;99472.13;7400087;19;20403;-38
2023/04/13 02:05:51;;;;;;;22.50;9.70;;;;;;;3.74;100.00;99462.09;7394497;19;20450;-34
2023/04/13 02:08:21;;;;;;;29.47;9.67;;;;;;;3.72;100.00;99468.78;7398484;19;20446;-36
2023/04/13 02:10:50;;;;;;;20.30;9.73;;;;;;;3.53;100.00;99475.53;7393455;19;20435;-35
2023/04/13 02:13:23;;;;;;;21.53;9.77;;;;;;;3.58;100.00;99461.31;7398106;19;20426;-36
2023/04/13 02:15:52;;;;;;;20.53;8.60;;;;;;;3.53;100.00;99467.00;7391783;19;20439;-38
2023/04/13 02:18:22;;;;;;;20.70;9.13;;;;;;;3.50;100.00;99472.84;7397628;19;20969;-36
2023/04/13 02:21:06;;;;;;;16.20;8.50;;;;;;;3.51;100.00;99479.69;7392765;19;20460;-37
2023/04/13 02:23:37;;;;;;;23.67;9.10;;;;;;;3.44;100.00;99475.94;7398119;19;20414;-35
2023/04/13 02:26:09;;;;;;;18.57;8.37;;;;;;;3.40;100.00;99481.69;7394664;19;20443;-35
2023/04/13 02:28:41;;;;;;;31.10;8.50;;;;;;;3.33;100.00;99488.16;7396480;19;20404;-36
2023/04/13 02:31:18;;;;;;;17.00;9.70;;;;;;;3.31;100.00;99499.06;7370091;19;20430;-35
2023/04/13 02:33:50;;;;;;;25.27;11.07;;;;;;;3.27;100.00;99485.28;7396596;19;20822;-35
2023/04/13 02:36:20;;;;;;;21.83;10.77;;;;;;;3.26;100.00;99492.84;7394862;19;20435;-35
2023/04/13 02:38:50;;;;;;;18.77;9.87;;;;;;;3.21;100.00;99490.06;7397982;19;20415;-35
2023/04/13 02:41:21;;;;;;;20.33;9.50;;;;;;;3.17;100.00;99494.16;7392994;19;20447;-35
2023/04/13 02:43:54;;;;;;;23.70;10.60;;;;;;;3.28;100.00;99494.69;7396252;19;20418;-35
2023/04/13 02:46:24;;;;;;;29.63;14.30;;;;;;;3.45;100.00;99489.56;7395177;19;20483;-35
2023/04/13 02:48:54;;;;;;;19.07;9.60;;;;;;;3.39;100.00;99487.59;7396680;19;20416;-36
2023/04/13 02:51:23;;;;;;;26.47;10.87;;;;;;;3.26;100.00;99483.53;7394058;19;20479;-37
2023/04/13 02:53:54;;;;;;;40.63;17.27;;;;;;;3.35;100.00;99476.34;7396085;19;20415;-37
2023/04/13 02:56:27;;;;;;;24.40;11.50;;;;;;;3.26;100.00;99483.53;7394977;19;20435;-35
2023/04/13 02:58:59;;;;;;;27.53;12.80;;;;;;;3.32;100.00;99476.22;7396246;19;20432;-35
2023/04/13 03:01:29;;;;;;;22.20;11.57;;;;;;;3.50;100.00;99472.84;7393456;19;20459;-37
2023/04/13 03:03:58;;;;;;;21.77;10.57;;;;;;;3.52;100.00;99471.22;7395535;19;20408;-35
2023/04/13 03:06:30;;;;;;;19.93;10.53;;;;;;;3.55;100.00;99463.75;7394661;19;21020;-36
2023/04/13 03:08:59;;;;;;;40.70;13.90;;;;;;;3.44;100.00;99462.34;7395702;19;20961;-35
2023/04/13 03:11:29;;;;;;;24.67;12.87;;;;;;;3.50;100.00;99457.53;7392557;19;20463;-35
2023/04/13 03:14:01;;;;;;;31.87;13.00;;;;;;;3.44;100.00;99457.22;7395611;19;20828;-36
2023/04/13 03:16:31;;;;;;;49.40;21.03;;;;;;;3.54;100.00;99449.22;7371726;19;20493;-34
2023/04/13 03:19:00;;;;;;;32.30;14.43;;;;;;;3.47;100.00;99448.06;7395248;19;20413;-36
2023/04/13 03:21:30;;;;;;;34.50;15.13;;;;;;;3.46;100.00;99440.31;7393728;19;20542;-35
2023/04/13 03:23:59;;;;;;;33.67;11.93;;;;;;;3.43;100.00;99437.63;7395285;19;20407;-35
2023/04/13 03:26:29;;;;;;;34.93;14.30;;;;;;;3.24;100.00;99432.47;7393315;19;20435;-35
2023/04/13 03:29:01;;;;;;;36.90;15.47;;;;;;;3.50;100.00;99435.44;7395287;19;20396;-36
2023/04/13 03:31:31;;;;;;;36.00;15.00;;;;;;;3.63;100.00;99429.28;7392329;19;20463;-35
2023/04/13 03:34:00;;;;;;;28.90;11.90;;;;;;;3.54;100.00;99426.25;7397328;19;20483;-36
2023/04/13 03:36:30;;;;;;;38.50;18.73;;;;;;;3.60;100.00;99424.00;7393540;19;20414;-37
2023/04/13 03:39:00;;;;;;;39.73;15.77;;;;;;;3.56;100.00;99427.22;7396408;19;20383;-35
2023/04/13 03:41:30;;;;;;;33.30;14.57;;;;;;;3.46;100.00;99422.47;7391153;19;20462;-35
2023/04/13 03:44:02;;;;;;;29.23;13.10;;;;;;;3.61;100.00;99420.69;7392916;19;20415;-35
2023/04/13 03:46:34;;;;;;;30.23;13.23;;;;;;;3.32;100.00;99422.66;7393288;19;20474;-35
2023/04/13 03:49:03;;;;;;;50.30;20.67;;;;;;;3.34;100.00;99415.97;7395534;19;20468;-35
2023/04/13 03:51:33;;;;;;;26.80;12.00;;;;;;;3.55;100.00;99424.59;7392210;19;20855;-35
2023/04/13 03:54:02;;;;;;;38.47;12.57;;;;;;;3.65;100.00;99432.75;7395361;19;20753;-35
2023/04/13 03:56:32;;;;;;;27.73;10.53;;;;;;;3.67;100.00;99425.19;7392712;19;20448;-35
2023/04/13 03:59:05;;;;;;;47.77;15.97;;;;;;;4.50;100.00;99416.22;7394519;19;20407;-36
2023/04/13 04:01:34;;;;;;;40.07;18.50;;;;;;;4.47;100.00;99419.50;7391576;19;20446;-36
2023/04/13 04:04:04;;;;;;;60.57;25.37;;;;;;;4.64;100.00;99414.25;7394348;19;20407;-35
2023/04/13 04:06:34;;;;;;;85.03;34.10;;;;;;;4.57;100.00;99419.09;7393451;19;20538;-35
2023/04/13 04:09:04;;;;;;;84.10;36.53;;;;;;;5.02;100.00;99414.19;7394544;19;20431;-35
2023/04/13 04:11:35;;;;;;;55.83;25.43;;;;;;;5.02;100.00;99424.41;7390903;19;20470;-36
2023/04/13 04:14:07;;;;;;;42.53;18.40;;;;;;;4.95;100.00;99444.59;7394480;19;20435;-35
2023/04/13 04:16:36;;;;;;;35.70;15.47;;;;;;;5.19;100.00;99454.13;7392432;19;21002;-35
2023/04/13 04:19:06;;;;;;;30.80;13.93;;;;;;;5.10;100.00;99477.63;7394095;19;20410;-35
2023/04/13 04:21:36;;;;;;;40.20;18.10;;;;;;;5.22;100.00;99476.38;7390415;19;20460;-40
2023/04/13 04:24:07;;;;;;;25.17;12.70;;;;;;;5.20;100.00;99489.13;7394336;19;20442;-36
2023/04/13 04:26:37;;;;;;;30.27;13.37;;;;;;;5.38;100.00;99500.94;7390529;19;20466;-34
2023/04/13 04:29:12;;;;;;;30.10;12.13;;;;;;;5.25;100.00;99518.34;7394152;19;20430;-34
2023/04/13 04:31:43;;;;;;;21.63;10.80;;;;;;;5.38;100.00;99529.94;7391629;19;20439;-34
2023/04/13 04:34:12;;;;;;;21.70;10.60;;;;;;;5.35;100.00;99545.19;7396141;19;20422;-36
2023/04/13 04:36:44;;;;;;;27.63;12.87;;;;;;;4.91;100.00;99547.50;7391943;19;20797;-35
2023/04/13 04:39:14;;;;;;;23.93;11.17;;;;;;;4.31;100.00;99559.25;7394336;19;20411;-35
2023/04/13 04:41:43;;;;;;;32.20;12.17;;;;;;;3.98;100.00;99550.81;7389086;19;20447;-35
2023/04/13 04:44:16;;;;;;;27.10;11.03;;;;;;;3.76;100.00;99553.19;7393630;19;20519;-35
2023/04/13 04:46:47;;;;;;;19.63;9.70;;;;;;;3.69;100.00;99547.72;7391699;19;20452;-35
2023/04/13 04:49:17;;;;;;;30.10;11.20;;;;;;;3.87;100.00;99538.44;7393761;19;20926;-35
2023/04/13 04:51:47;;;;;;;36.53;14.87;;;;;;;3.90;100.00;99535.16;7390306;19;20466;-38
2023/04/13 04:54:18;;;;;;;29.57;11.83;;;;;;;3.68;100.00;99531.53;7392821;19;20399;-37
2023/04/13 04:56:48;;;;;;;27.10;12.57;;;;;;;3.43;100.00;99537.94;7391135;19;20462;-36
2023/04/13 04:59:21;;;;;;;36.43;13.57;;;;;;;3.59;100.00;99534.50;7393701;19;20445;-34
2023/04/13 05:01:51;;;;;;;50.73;11.87;;;;;;;3.54;100.00;99538.47;7390798;19;20455;-35
2023/04/13 05:04:20;;;;;;;26.67;11.00;;;;;;;3.42;100.00;99530.22;7393168;19;20391;-35
2023/04/13 05:06:50;;;;;;;28.33;11.90;;;;;;;3.56;100.00;99530.91;7392218;19;20466;-36
2023/04/13 05:09:20;;;;;;;32.03;14.70;;;;;;;3.47;100.00;99527.13;7393124;19;20411;-35
2023/04/13 05:11:50;;;;;;;31.80;12.57;;;;;;;3.40;100.00;99521.63;7388916;19;20467;-35
2023/04/13 05:14:22;;;;;;;33.57;11.07;;;;;;;3.51;100.00;99517.94;7394195;19;20446;-35
2023/04/13 05:16:51;;;;;;;35.67;14.50;;;;;;;3.63;100.00;99516.00;7393548;19;20463;-36
2023/04/13 05:19:21;;;;;;;28.07;12.17;;;;;;;3.50;100.00;99518.75;7392394;19;20404;-35
2023/04/13 05:21:51;;;;;;;27.27;11.83;;;;;;;3.50;100.00;99511.94;7386123;19;20458;-35
2023/04/13 05:24:20;;;;;;;27.40;11.10;;;;;;;3.70;100.00;99501.00;7393110;19;20423;-36
2023/04/13 05:26:51;;;;;;;28.43;12.33;;;;;;;3.80;100.00;99503.22;7390386;19;21006;-35
2023/04/13 05:29:24;;;;;;;30.73;13.40;;;;;;;3.91;100.00;99490.97;7392767;19;20757;-36
2023/04/13 05:31:54;;;;;;;34.33;13.63;;;;;;;3.92;100.00;99485.94;7390437;19;20462;-35
2023/04/13 05:34:23;;;;;;;32.10;14.07;;;;;;;3.94;100.00;99480.03;7392690;19;20443;-35
2023/04/13 05:36:54;;;;;;;26.77;13.03;;;;;;;4.04;100.00;99475.44;7392407;19;20447;-36
2023/04/13 05:39:24;;;;;;;33.43;13.90;;;;;;;4.10;100.00;99473.97;7392333;19;20426;-36
2023/04/13 05:41:53;;;;;;;44.43;16.70;;;;;;;4.05;100.00;99478.84;7388817;19;20447;-36
2023/04/13 05:44:25;;;;;;;24.53;12.00;;;;;;;4.13;100.00;99467.34;7392883;19;20806;-35
2023/04/13 05:46:55;;;;;;;31.93;12.10;;;;;;;4.14;100.00;99466.53;7388784;19;20447;-35
2023/04/13 05:49:25;;;;;;;31.50;11.43;;;;;;;4.10;100.00;99472.28;7393412;19;20774;-34
2023/04/13 05:51:55;;;;;;;29.73;10.60;;;;;;;4.20;100.00;99478.69;7390436;19;20463;-35
2023/04/13 05:54:25;;;;;;;32.83;11.87;;;;;;;4.20;100.00;99481.25;7391861;19;20404;-36
2023/04/13 05:56:55;;;;;;;24.57;12.27;;;;;;;4.36;100.00;99472.63;7391999;19;20458;-35
2023/04/13 05:59:27;;;;;;;33.50;13.40;;;;;;;4.52;100.00;99473.34;7391870;19;20412;-35
2023/04/13 06:01:58;;;;;;;28.70;12.13;;;;;;;4.56;100.00;99477.81;7389778;19;20455;-35
2023/04/13 06:04:28;;;;;;;25.73;10.50;;;;;;;4.61;100.00;99483.97;7388780;19;20862;-35
2023/04/13 06:06:58;;;;;;;25.20;12.43;;;;;;;4.81;100.00;99489.97;7396790;19;21018;-37
2023/04/13 06:09:28;;;;;;;38.60;14.00;;;;;;;4.90;100.00;99494.63;7395739;19;20431;-35
2023/04/13 06:11:58;;;;;;;52.90;19.30;;;;;;;4.85;100.00;99493.56;7394953;19;20442;-36
2023/04/13 06:14:30;;;;;;;25.53;11.20;;;;;;;5.14;100.00;99493.97;7395759;19;20423;-35
2023/04/13 06:17:00;;;;;;;21.60;10.77;;;;;;;5.05;100.00;99494.44;7396622;19;20936;-36
2023/04/13 06:19:30;;;;;;;19.93;9.93;;;;;;;5.04;100.00;99491.81;7395524;19;20411;-36
2023/04/13 06:22:00;;;;;;;21.83;9.77;;;;;;;5.07;100.00;99507.28;7395703;19;20450;-36
2023/04/13 06:24:29;;;;;;;19.43;9.73;;;;;;;5.00;100.00;99511.25;7392897;19;20411;-35
2023/04/13 06:26:59;;;;;;;30.40;11.17;;;;;;;5.10;100.00;99507.41;7396838;19;20418;-37
2023/04/13 06:29:31;;;;;;;19.40;9.93;;;;;;;5.04;100.00;99517.38;7394242;19;21048;-35
2023/04/13 06:32:01;;;;;;;25.40;11.60;;;;;;;4.84;100.00;99519.91;7396237;19;20439;-35
2023/04/13 06:34:30;;;;;;;20.67;8.33;;;;;;;4.84;100.00;99515.69;7394292;19;20502;-35
2023/04/13 06:37:00;;;;;;;24.17;10.40;;;;;;;5.03;100.00;99510.50;7397598;19;20419;-36
2023/04/13 06:39:30;;;;;;;16.53;9.67;;;;;;;5.11;100.00;99504.06;7394029;19;20423;-35
2023/04/13 06:42:01;;;;;;;39.40;16.67;;;;;;;5.17;100.00;99503.47;7395599;19;20455;-35
2023/04/13 06:44:33;;;;;;;22.30;10.17;;;;;;;5.21;100.00;99497.66;7394981;19;20404;-36
2023/04/13 06:47:04;;;;;;;25.07;12.50;;;;;;;5.06;100.00;99505.53;7396565;19;20404;-35
2023/04/13 06:49:35;;;;;;;23.90;9.80;;;;;;;5.03;100.00;99505.41;7395143;19;20415;-34
2023/04/13 06:52:04;;;;;;;16.40;8.00;;;;;;;5.34;100.00;99496.50;7395394;19;20439;-35
2023/04/13 06:54:34;;;;;;;11.80;5.80;;;;;;;5.08;100.00;99503.94;7396586;19;20411;-35
2023/04/13 06:57:03;;;;;;;23.30;9.40;;;;;;;5.15;100.00;99505.94;7394767;19;20403;-37
2023/04/13 06:59:35;;;;;;;16.70;6.73;;;;;;;5.27;100.00;99505.59;7394637;19;20416;-35
2023/04/13 07:02:08;;;;;;;12.77;5.93;;;;;;;5.12;100.00;99526.25;7395620;19;20461;-34
2023/04/13 07:04:38;;;;;;;10.73;4.80;;;;;;;5.19;100.00;99522.28;7394341;19;20931;-34
2023/04/13 07:07:08;;;;;;;10.23;4.83;;;;;;;5.23;100.00;99514.81;7397621;19;20414;-35
2023/04/13 07:09:38;;;;;;;8.83;4.90;;;;;;;5.30;100.00;99525.31;7394004;19;20404;-34
2023/04/13 07:12:08;;;;;;;9.23;4.23;;;;;;;5.43;100.00;99527.59;7394547;19;20809;-35
2023/04/13 07:14:42;;;;;;;9.70;3.83;;;;;;;5.50;100.00;99524.47;7394010;19;20404;-34
2023/04/13 07:17:11;;;;;;;9.00;3.97;;;;;;;5.46;100.00;99547.31;7395744;19;20403;-34
2023/04/13 07:19:46;;;;;;;4.90;3.40;;;;;;;5.62;100.00;99552.28;7391688;19;20403;-35
2023/04/13 07:22:16;;;;;;;8.10;3.10;;;;;;;5.68;100.00;99554.22;7395907;19;20981;-36
2023/04/13 07:24:45;;;;;;;8.27;4.17;;;;;;;5.77;100.00;99556.28;7386433;19;20425;-34
2023/04/13 07:27:15;;;;;;;6.93;4.00;;;;;;;5.78;100.00;99569.16;7395897;19;20418;-34
2023/04/13 07:29:48;;;;;;;6.27;3.20;;;;;;;5.85;100.00;99579.66;7392274;19;21461;-34
2023/04/13 07:32:17;;;;;;;7.73;2.47;;;;;;;5.81;100.00;99582.06;7395519;19;20446;-34
2023/04/13 07:34:49;;;;;;;12.37;5.20;;;;;;;5.88;100.00;99590.00;7390996;19;20407;-35
2023/04/13 07:37:19;;;;;;;14.40;5.80;;;;;;;5.92;100.00;99592.78;7395527;19;20455;-35
2023/04/13 07:39:48;;;;;;;20.33;7.03;;;;;;;6.16;100.00;99591.22;7391868;19;20411;-34
2023/04/13 07:42:18;;;;;;;18.47;4.77;;;;;;;6.16;100.00;99597.19;7393667;19;20466;-35
2023/04/13 07:44:51;;;;;;;10.30;4.00;;;;;;;6.17;100.00;99603.19;7390660;19;20450;-37
2023/04/13 07:47:20;;;;;;;7.10;3.17;;;;;;;6.16;100.00;99616.81;7395276;19;20411;-37
2023/04/13 07:49:50;;;;;;;4.30;1.80;;;;;;;6.01;100.00;99632.38;7390768;19;20419;-35
2023/04/13 07:52:21;;;;;;;26.47;7.60;;;;;;;6.24;100.00;99627.38;7394534;19;20443;-35
2023/04/13 07:54:50;;;;;;;13.93;3.67;;;;;;;6.20;100.00;99636.59;7390568;19;20403;-34
2023/04/13 07:57:21;;;;;;;5.33;2.20;;;;;;;6.28;100.00;99642.94;7394641;19;20449;-34
2023/04/13 07:59:53;;;;;;;6.40;1.93;;;;;;;6.25;100.00;99647.91;7390833;19;20514;-34
2023/04/13 08:02:24;;;;;;;9.27;2.87;;;;;;;6.26;100.00;99662.47;7394837;19;20462;-35
2023/04/13 08:04:54;;;;;;;6.13;2.50;;;;;;;6.42;100.00;99663.13;7390183;19;20403;-35
2023/04/13 08:07:23;;;;;;;4.80;2.73;;;;;;;6.43;100.00;99664.88;7395087;19;20770;-36
2023/04/13 08:09:53;;;;;;;4.80;2.07;;;;;;;6.55;100.00;99664.47;7390159;19;21082;-35
2023/04/13 08:12:23;;;;;;;3.50;1.70;;;;;;;6.56;100.00;99672.25;7394001;19;20453;-36
2023/04/13 08:14:55;;;;;;;2.50;1.37;;;;;;;6.44;100.00;99682.00;7387363;19;20431;-35
2023/04/13 08:17:25;;;;;;;5.70;2.53;;;;;;;6.57;100.00;99688.50;7394022;19;20403;-35
2023/04/13 08:19:54;;;;;;;4.80;2.13;;;;;;;6.50;100.00;99696.75;7389777;19;20475;-35
2023/04/13 08:22:24;;;;;;;5.43;2.07;;;;;;;6.58;100.00;99706.53;7392304;19;20453;-41
2023/04/13 08:24:53;;;;;;;6.00;2.60;;;;;;;6.66;100.00;99703.41;7392035;19;20419;-35
2023/04/13 08:27:24;;;;;;;5.83;2.17;;;;;;;6.53;100.00;99713.13;7394390;19;20404;-35
2023/04/13 08:30:00;;;;;;;5.43;2.60;;;;;;;6.58;100.00;99718.44;7388278;19;20482;-35
2023/04/13 08:32:30;;;;;;;5.43;2.43;;;;;;;6.64;100.00;99730.63;7393296;19;20447;-36
2023/04/13 08:35:05;;;;;;;4.20;1.17;;;;;;;6.56;100.00;99741.44;7389607;19;20547;-35
2023/04/13 08:37:35;;;;;;;7.13;2.93;;;;;;;6.62;100.00;99734.00;7394612;19;20407;-35
2023/04/13 08:40:06;;;;;;;23.80;7.47;;;;;;;6.79;100.00;99738.97;7389475;19;20420;-35
2023/04/13 08:42:36;;;;;;;7.33;3.30;;;;;;;6.69;100.00;99749.66;7392904;19;20427;-35
2023/04/13 08:45:10;;;;;;;5.77;2.03;;;;;;;6.68;100.00;99756.47;7390743;19;20395;-35
2023/04/13 08:47:41;;;;;;;3.90;2.27;;;;;;;6.75;100.00;99752.47;7394138;19;20403;-35
2023/04/13 08:50:12;;;;;;;2.50;1.50;;;;;;;6.82;100.00;99767.28;7389543;19;20503;-36
2023/04/13 08:52:42;;;;;;;5.40;2.23;;;;;;;6.92;100.00;99767.66;7394817;19;20473;-36
2023/04/13 08:55:11;;;;;;;5.50;2.60;;;;;;;7.00;100.00;99761.16;7390089;19;20542;-36
2023/04/13 08:57:41;;;;;;;2.97;1.30;;;;;;;7.00;100.00;99773.97;7392767;19;20930;-35
2023/04/13 09:00:16;;;;;;;2.17;1.03;;;;;;;7.01;100.00;99784.31;7389235;19;20430;-35
2023/04/13 09:02:53;;;;;;;3.33;1.30;;;;;;;7.06;100.00;99787.06;7391699;19;21018;-35
2023/04/13 09:05:40;;;;;;;4.60;1.00;;;;;;;7.12;100.00;99799.22;7390091;19;20439;-35
2023/04/13 09:08:11;;;;;;;2.20;1.50;;;;;;;7.21;100.00;99807.31;7392685;19;20771;-35
2023/04/13 09:10:41;;;;;;;3.07;1.40;;;;;;;7.24;100.00;99796.31;7388837;19;20423;-36
2023/04/13 09:13:10;;;;;;;6.33;2.50;;;;;;;7.34;100.00;99816.38;7392256;19;20454;-34
2023/04/13 09:15:46;;;;;;;3.63;1.27;;;;;;;7.41;100.00;99831.22;7389409;19;20446;-36
2023/04/13 09:18:16;;;;;;;3.43;1.00;;;;;;;7.42;100.00;99827.84;7393236;19;20417;-38
2023/04/13 09:20:45;;;;;;;4.67;1.00;;;;;;;7.49;100.00;99853.75;7388214;19;20443;-38
2023/04/13 09:23:18;;;;;;;5.50;1.40;;;;;;;7.48;100.00;99867.41;7392171;19;20443;-34
2023/04/13 09:25:49;;;;;;;3.57;2.00;;;;;;;7.64;100.00;99869.75;7388614;19;20439;-40
2023/04/13 09:28:20;;;;;;;4.87;1.10;;;;;;;7.67;100.00;99880.16;7393866;19;20399;-37
2023/04/13 09:30:52;;;;;;;5.70;2.33;;;;;;;7.88;100.00;99868.94;7387061;19;20811;-38
2023/04/13 09:33:22;;;;;;;2.40;1.03;;;;;;;7.82;100.00;99900.44;7391747;19;20513;-38
2023/04/13 09:35:51;;;;;;;5.57;1.60;;;;;;;7.74;100.00;99898.38;7388722;19;20453;-38
2023/04/13 09:38:21;;;;;;;2.80;1.50;;;;;;;7.86;100.00;99891.16;7392928;19;20404;-39
2023/04/13 09:40:53;;;;;;;8.00;3.00;;;;;;;7.97;100.00;99900.16;7388200;19;20447;-38
2023/04/13 09:43:22;;;;;;;2.40;0.90;;;;;;;7.82;100.00;99902.09;7398380;19;20462;-38
2023/04/13 09:45:55;;;;;;;2.23;1.00;;;;;;;7.87;100.00;99907.41;7394486;19;20478;-38
2023/04/13 09:48:25;;;;;;;4.07;1.67;;;;;;;7.96;100.00;99908.66;7401331;19;20411;-43
2023/04/13 09:51:03;;;;;;;4.07;1.40;;;;;;;7.99;100.00;99937.84;7393717;19;20818;-40
2023/04/13 09:53:41;;;;;;;4.30;1.73;;;;;;;8.09;100.00;99932.25;7398487;19;20419;-38
2023/04/13 09:56:11;;;;;;;4.60;1.60;;;;;;;8.28;100.00;99945.78;7396184;19;20439;-39
2023/04/13 09:58:44;;;;;;;2.37;1.10;;;;;;;8.27;100.00;99949.19;7397644;19;20415;-39
2023/04/13 10:01:16;;;;;;;6.70;2.37;;;;;;;8.19;100.00;99957.47;7394806;19;20431;-38
2023/04/13 10:03:46;;;;;;;1.80;0.73;;;;;;;8.29;100.00;99962.97;7397616;19;20399;-38
2023/04/13 10:06:16;;;;;;;3.27;1.20;;;;;;;8.34;100.00;99971.72;7393080;19;20435;-38
2023/04/13 10:08:46;;;;;;;2.43;1.13;;;;;;;8.38;100.00;99989.88;7399635;19;20396;-39
2023/04/13 10:11:16;;;;;;;4.23;1.93;;;;;;;8.53;100.00;99987.88;7394768;19;20442;-39
2023/04/13 10:13:51;;;;;;;5.47;1.60;;;;;;;8.57;100.00;100000.06;7396196;19;20926;-38
2023/04/13 10:16:44;;;;;;;4.20;0.93;;;;;;;8.33;100.00;100022.28;7395394;19;20442;-38
2023/04/13 10:19:15;;;;;;;2.70;1.17;;;;;;;8.35;100.00;100041.19;7398291;19;20403;-35
2023/04/13 10:21:46;;;;;;;2.03;1.13;;;;;;;8.28;100.00;100044.34;7394751;19;20493;-35
2023/04/13 10:24:16;;;;;;;2.70;1.40;;;;;;;8.27;100.00;100041.72;7397491;19;20422;-35
2023/04/13 10:26:46;;;;;;;4.17;2.07;;;;;;;8.31;100.00;100054.72;7395130;19;20447;-35
2023/04/13 10:29:16;;;;;;;2.03;0.93;;;;;;;8.38;100.00;100050.72;7397330;19;20411;-34
2023/04/13 10:31:52;;;;;;;3.10;1.57;;;;;;;8.38;100.00;100061.00;7394148;19;20467;-34
2023/04/13 10:34:26;;;;;;;4.53;2.33;;;;;;;8.42;100.00;100062.00;7396907;19;20788;-34
2023/04/13 10:36:57;;;;;;;2.50;1.03;;;;;;;8.49;100.00;100079.44;7397896;19;20453;-34
2023/04/13 10:39:27;;;;;;;6.83;2.30;;;;;;;8.48;100.00;100085.38;7395269;19;20400;-34
2023/04/13 10:42:01;;;;;;;5.80;2.60;;;;;;;8.48;100.00;100072.53;7394471;19;20435;-35
2023/04/13 10:44:42;;;;;;;3.73;1.53;;;;;;;8.65;100.00;100070.66;7374022;19;20418;-34
2023/04/13 10:47:15;;;;;;;2.77;1.17;;;;;;;8.44;100.00;100081.81;7395617;19;20415;-34
2023/04/13 10:49:46;;;;;;;26.97;7.83;;;;;;;8.67;100.00;100068.13;7392767;19;20449;-34
2023/04/13 10:52:17;;;;;;;5.93;1.97;;;;;;;8.77;100.00;100073.69;7394818;19;20447;-34
2023/04/13 10:54:47;;;;;;;4.83;1.70;;;;;;;8.96;100.00;100082.09;7393978;19;20426;-34
2023/04/13 10:57:16;;;;;;;4.67;1.67;;;;;;;9.15;100.00;100077.63;7396319;19;20411;-35
2023/04/13 10:59:48;;;;;;;6.57;2.27;;;;;;;9.14;100.00;100091.34;7392175;19;20852;-34
2023/04/13 11:02:32;;;;;;;4.50;1.97;;;;;;;8.77;100.00;100101.97;7395549;19;20458;-34
2023/04/13 11:05:02;;;;;;;3.43;2.10;;;;;;;8.77;100.00;100107.13;7392930;19;20547;-34
2023/04/13 11:07:32;;;;;;;3.10;1.57;;;;;;;8.70;100.00;100106.81;7399366;19;20424;-35
2023/04/13 11:10:02;;;;;;;3.23;1.70;;;;;;;8.65;100.00;100132.38;7391981;19;20415;-34
2023/04/13 11:12:32;;;;;;;12.47;2.30;;;;;;;8.55;100.00;100131.13;7395788;19;20799;-35
2023/04/13 11:15:02;;;;;;;4.40;2.23;;;;;;;8.48;100.00;100114.56;7391312;19;20410;-34
2023/04/13 11:17:34;;;;;;;15.13;4.57;;;;;;;8.67;100.00;100110.16;7395355;19;20400;-34
2023/04/13 11:20:07;;;;;;;5.10;2.40;;;;;;;8.88;100.00;100093.81;7391873;19;20420;-34
2023/04/13 11:22:38;;;;;;;6.67;2.40;;;;;;;9.25;100.00;100102.91;7395870;19;20440;-34
2023/04/13 11:25:09;;;;;;;23.23;6.70;;;;;;;9.27;100.00;100095.22;7392089;19;20939;-34
2023/04/13 11:27:39;;;;;;;4.23;2.43;;;;;;;9.32;100.00;100107.44;7396360;19;20418;-34
2023/04/13 11:30:11;;;;;;;7.67;2.53;;;;;;;9.68;100.00;100142.19;7392682;19;20447;-34
2023/04/13 11:32:44;;;;;;;5.33;2.10;;;;;;;9.53;100.00;100163.13;7395377;19;20458;-36
2023/04/13 11:35:17;;;;;;;12.17;2.47;;;;;;;9.48;100.00;100184.38;7390870;19;20957;-35
2023/04/13 11:37:49;;;;;;;17.00;4.80;;;;;;;9.65;100.00;100196.16;7393640;19;20407;-34
2023/04/13 11:40:20;;;;;;;4.03;1.33;;;;;;;9.30;100.00;100227.53;7391302;19;20438;-34
2023/04/13 11:42:51;;;;;;;6.97;3.20;;;;;;;9.24;100.00;100222.13;7394327;19;20482;-33